Time;durP1;ratioP1;P1;durP2;ratioP2;P2;SDS_P1;SDS_P2;PMS_P1;PMS_P2;Temp;Humidity;BMP_temperature;BMP_pressure;BME280_temperature;BME280_humidity;BME280_pressure;Samples;Min_cycle;Max_cycle;Signal;HPM_P1;HPM_P2
2021/08/28 00:06:21;;;;;;;0.77;0.77;;;24.90;99.90;;;;;;20705632;28;20316;-74
2021/08/28 00:16:25;;;;;;;1.05;0.73;;;25.00;99.90;;;;;;20704830;28;20656;-75
2021/08/28 00:26:30;;;;;;;2.55;1.42;;;25.00;99.90;;;;;;20764489;28;20762;-74
2021/08/28 00:36:34;;;;;;;2.47;1.45;;;25.00;99.90;;;;;;20735257;28;20601;-75
2021/08/28 00:46:39;;;;;;;0.95;0.90;;;24.90;99.90;;;;;;20739554;28;20692;-77
2021/08/28 00:56:43;;;;;;;1.20;1.10;;;24.80;99.90;;;;;;20737959;28;20190;-76
2021/08/28 01:06:56;;;;;;;2.95;1.08;;;24.80;99.90;;;;;;20649147;23;20334;-70
2021/08/28 01:17:05;;;;;;;1.10;1.00;;;24.80;99.90;;;;;;20630122;28;20527;-69
2021/08/28 01:27:16;;;;;;;2.10;0.95;;;24.80;99.90;;;;;;20667717;28;20233;-69
2021/08/28 01:37:21;;;;;;;0.57;0.40;;;24.80;99.90;;;;;;20628752;28;20993;-68
2021/08/28 01:47:28;;;;;;;5.32;0.82;;;25.00;99.90;;;;;;20615688;28;20235;-70
2021/08/28 01:57:33;;;;;;;0.75;0.75;;;25.10;99.90;;;;;;20598954;28;21097;-69
2021/08/28 02:07:48;;;;;;;1.27;0.95;;;25.00;99.90;;;;;;20549330;28;20243;-69
2021/08/28 02:17:59;;;;;;;0.82;0.77;;;24.80;99.90;;;;;;20532703;28;20207;-70
2021/08/28 02:28:05;;;;;;;0.40;0.40;;;24.80;99.90;;;;;;20533921;28;20711;-69
2021/08/28 02:38:10;;;;;;;0.90;0.75;;;24.80;99.90;;;;;;20533349;28;20206;-69
2021/08/28 02:48:17;;;;;;;0.70;0.70;;;24.90;99.90;;;;;;20560100;28;20689;-69
2021/08/28 02:58:22;;;;;;;2.15;0.73;;;24.70;99.90;;;;;;20561910;28;20204;-69
2021/08/28 03:08:27;;;;;;;1.88;1.02;;;24.60;99.90;;;;;;20645338;23;20239;-81
2021/08/28 03:18:37;;;;;;;1.15;1.05;;;24.30;99.90;;;;;;20640184;28;20210;-80
2021/08/28 03:28:41;;;;;;;1.10;0.75;;;23.80;99.90;;;;;;20625420;28;20227;-87
2021/08/28 03:38:47;;;;;;;1.45;0.77;;;23.40;99.90;;;;;;20645906;28;20723;-86
2021/08/28 03:48:51;;;;;;;0.60;0.50;;;23.40;99.90;;;;;;20626419;28;20226;-81
2021/08/28 03:58:56;;;;;;;3.67;1.00;;;23.20;99.90;;;;;;20577484;28;20199;-83
2021/08/28 04:09:03;;;;;;;0.77;0.60;;;23.20;99.90;;;;;;20708545;28;20230;-83
2021/08/28 04:19:07;;;;;;;0.90;0.90;;;23.20;99.90;;;;;;20701825;28;20203;-77
2021/08/28 04:29:11;;;;;;;0.68;0.68;;;23.30;99.90;;;;;;20704902;28;20229;-79
2021/08/28 04:39:16;;;;;;;1.23;0.60;;;23.20;99.90;;;;;;20631771;28;20198;-82
2021/08/28 04:49:20;;;;;;;1.17;1.08;;;23.10;99.90;;;;;;20623936;28;20223;-83
2021/08/28 04:59:26;;;;;;;1.20;0.88;;;22.90;99.90;;;;;;20639126;28;20296;-79
2021/08/28 05:09:30;;;;;;;2.53;1.52;;;23.00;99.90;;;;;;20700860;28;20234;-79
2021/08/28 05:19:35;;;;;;;0.88;0.70;;;23.40;99.90;;;;;;20702765;28;20297;-81
2021/08/28 05:29:38;;;;;;;0.77;0.77;;;23.70;99.90;;;;;;20699947;28;20229;-80
2021/08/28 05:39:43;;;;;;;1.23;1.13;;;23.80;99.90;;;;;;20700453;28;20199;-81
2021/08/28 05:49:47;;;;;;;1.20;0.90;;;23.80;99.90;;;;;;20699901;28;20230;-81
2021/08/28 05:59:52;;;;;;;5.30;1.65;;;23.90;99.90;;;;;;20677503;28;20521;-82
2021/08/28 06:09:56;;;;;;;4.30;1.38;;;23.90;99.90;;;;;;20616109;28;20245;-81
2021/08/28 06:20:01;;;;;;;2.35;1.45;;;24.10;99.90;;;;;;20615471;28;20202;-79
2021/08/28 06:30:06;;;;;;;1.58;0.75;;;24.30;99.90;;;;;;20613043;28;20883;-79
2021/08/28 06:40:13;;;;;;;0.95;0.80;;;24.30;99.90;;;;;;20616112;28;20314;-78
2021/08/28 06:50:17;;;;;;;0.75;0.63;;;24.60;99.90;;;;;;20612623;28;20227;-80
2021/08/28 07:00:22;;;;;;;2.05;1.48;;;24.60;99.90;;;;;;20642275;28;20328;-78
2021/08/28 07:10:26;;;;;;;0.65;0.45;;;24.60;99.90;;;;;;20693707;28;20285;-77
2021/08/28 07:20:32;;;;;;;3.30;1.23;;;25.10;99.90;;;;;;20695058;28;20191;-75
2021/08/28 07:30:37;;;;;;;1.50;0.73;;;25.20;99.90;;;;;;20669099;28;20230;-81
2021/08/28 07:40:43;;;;;;;1.08;0.95;;;25.40;99.90;;;;;;20710416;28;20202;-74
2021/08/28 07:50:47;;;;;;;2.60;0.88;;;25.30;99.90;;;;;;20642083;28;20215;-75
2021/08/28 08:00:52;;;;;;;0.28;0.28;;;25.20;99.90;;;;;;20648627;28;20380;-79
2021/08/28 08:10:59;;;;;;;2.38;0.57;;;25.70;99.90;;;;;;20613337;28;20323;-75
2021/08/28 08:21:05;;;;;;;1.58;1.35;;;25.80;99.90;;;;;;20570615;28;20251;-77
2021/08/28 08:31:10;;;;;;;1.50;0.73;;;26.50;99.90;;;;;;20596281;28;20240;-78
2021/08/28 08:41:22;;;;;;;0.40;0.40;;;26.50;99.90;;;;;;20588465;28;20231;-76
2021/08/28 08:51:33;;;;;;;0.90;0.60;;;26.70;99.90;;;;;;20583243;28;20773;-77
2021/08/28 09:01:40;;;;;;;0.70;0.70;;;26.80;99.90;;;;;;20614389;28;20684;-78
2021/08/28 09:11:59;;;;;;;3.55;0.52;;;26.80;99.90;;;;;;20562249;28;20233;-76
2021/08/28 09:22:06;;;;;;;0.82;0.68;;;27.20;99.90;;;;;;20559031;28;20378;-76
2021/08/28 09:32:11;;;;;;;1.58;1.00;;;26.90;99.90;;;;;;20579046;28;20812;-75
2021/08/28 09:42:22;;;;;;;0.70;0.45;;;27.20;99.90;;;;;;20612859;28;20203;-75
2021/08/28 09:52:28;;;;;;;0.65;0.50;;;26.90;99.90;;;;;;20582789;28;20680;-72
2021/08/28 10:02:33;;;;;;;0.68;0.47;;;27.00;99.90;;;;;;20579513;28;20318;-77
2021/08/28 10:12:38;;;;;;;1.10;1.00;;;27.60;99.90;;;;;;20552869;28;20192;-74
2021/08/28 10:22:45;;;;;;;2.42;0.68;;;27.40;99.90;;;;;;20581443;28;20282;-76
2021/08/28 10:32:50;;;;;;;1.30;0.82;;;27.80;99.90;;;;;;20571249;28;20350;-76
2021/08/28 10:42:59;;;;;;;1.65;1.02;;;28.20;99.90;;;;;;20551457;28;20274;-71
2021/08/28 10:53:05;;;;;;;2.65;1.77;;;28.30;99.90;;;;;;20582208;28;20227;-77
2021/08/28 11:03:26;;;;;;;2.88;1.13;;;28.50;99.90;;;;;;20601938;28;20230;-74
2021/08/28 11:13:54;;;;;;;4.10;0.80;;;29.10;99.90;;;;;;20595751;28;21066;-76
2021/08/28 11:24:12;;;;;;;1.60;1.02;;;29.70;99.90;;;;;;20618476;28;20234;-83
2021/08/28 11:34:29;;;;;;;4.40;2.00;;;30.00;99.90;;;;;;20627977;28;20552;-76
2021/08/28 11:44:34;;;;;;;1.52;1.23;;;30.50;99.90;;;;;;20627438;28;20938;-73
2021/08/28 11:54:45;;;;;;;2.08;1.83;;;30.90;99.90;;;;;;20612613;28;20197;-72
2021/08/28 12:04:50;;;;;;;1.50;0.95;;;31.60;99.90;;;;;;20686561;28;20594;-72
2021/08/28 12:14:54;;;;;;;5.03;2.72;;;31.20;99.90;;;;;;20684963;28;20203;-71
2021/08/28 12:24:59;;;;;;;1.45;1.23;;;31.70;99.90;;;;;;20703493;28;20230;-76
2021/08/28 12:35:03;;;;;;;2.50;1.05;;;32.50;99.90;;;;;;20652872;28;20804;-74
2021/08/28 12:45:10;;;;;;;7.82;2.72;;;32.20;99.90;;;;;;20621912;28;20652;-78
2021/08/28 12:55:26;;;;;;;3.53;1.35;;;32.40;99.90;;;;;;20633788;28;20213;-72
2021/08/28 13:05:33;;;;;;;2.42;2.15;;;33.00;99.90;;;;;;20633318;28;20649;-74
2021/08/28 13:15:41;;;;;;;1.08;0.98;;;33.50;99.90;;;;;;20585162;28;20204;-73
2021/08/28 13:25:50;;;;;;;4.63;1.92;;;32.90;99.90;;;;;;20602465;28;20713;-79
2021/08/28 13:35:57;;;;;;;1.05;0.77;;;33.20;99.90;;;;;;20619057;28;20196;-76
2021/08/28 13:46:04;;;;;;;5.25;1.27;;;34.00;99.90;;;;;;20614608;28;20223;-77
2021/08/28 13:56:08;;;;;;;11.40;7.13;;;32.80;99.90;;;;;;20616447;28;20237;-80
2021/08/28 14:06:14;;;;;;;2.28;0.98;;;33.40;99.90;;;;;;20640705;28;20238;-75
2021/08/28 14:16:18;;;;;;;1.35;1.25;;;34.30;99.90;;;;;;20584719;28;21078;-81
2021/08/28 14:26:26;;;;;;;6.85;1.23;;;33.70;99.90;;;;;;20576242;28;20240;-81
2021/08/28 14:36:32;;;;;;;1.23;0.80;;;34.20;99.90;;;;;;20566292;28;20936;-76
2021/08/28 14:46:41;;;;;;;4.10;1.23;;;34.40;99.90;;;;;;20568236;28;20232;-82
2021/08/28 14:56:45;;;;;;;1.00;0.93;;;34.50;99.90;;;;;;20599421;28;20203;-75
2021/08/28 15:06:50;;;;;;;0.70;0.63;;;34.50;99.90;;;;;;20674761;28;20876;-77
2021/08/28 15:16:54;;;;;;;3.00;1.13;;;33.80;99.90;;;;;;20608860;28;20202;-78
2021/08/28 15:27:04;;;;;;;1.35;1.05;;;34.60;99.90;;;;;;20577339;28;20223;-79
2021/08/28 15:37:08;;;;;;;2.20;1.08;;;31.50;99.90;;;;;;20547935;28;20704;-78
2021/08/28 15:47:13;;;;;;;0.88;0.82;;;29.20;99.90;;;;;;20539528;28;20238;-87
2021/08/28 15:57:16;;;;;;;1.10;1.00;;;28.30;99.90;;;;;;20613027;28;20746;-79
2021/08/28 16:07:22;;;;;;;1.27;1.17;;;28.10;99.90;;;;;;20633288;28;20227;-85
2021/08/28 16:17:26;;;;;;;2.22;1.25;;;27.80;99.90;;;;;;20619512;28;20294;-81
2021/08/28 16:27:31;;;;;;;2.63;1.35;;;27.50;99.90;;;;;;20622153;28;20590;-79
2021/08/28 16:37:35;;;;;;;3.58;0.95;;;27.70;99.90;;;;;;20615893;28;20518;-81
2021/08/28 16:47:41;;;;;;;0.95;0.95;;;27.50;99.90;;;;;;20620355;28;20238;-81
2021/08/28 16:57:44;;;;;;;1.05;0.60;;;27.20;99.90;;;;;;20627868;28;20636;-81
2021/08/28 17:07:49;;;;;;;3.75;1.38;;;27.20;99.90;;;;;;20702744;28;20241;-82
2021/08/28 17:17:53;;;;;;;0.95;0.95;;;27.10;99.90;;;;;;20665981;28;20860;-78
2021/08/28 17:27:58;;;;;;;7.80;1.38;;;26.90;99.90;;;;;;20698958;28;20228;-80
2021/08/28 17:38:02;;;;;;;1.77;0.98;;;26.70;99.90;;;;;;20698697;28;20653;-75
2021/08/28 17:48:07;;;;;;;9.77;4.70;;;26.50;99.90;;;;;;20696165;28;20219;-75
2021/08/28 17:58:11;;;;;;;1.40;1.00;;;26.60;99.90;;;;;;20582738;28;20869;-72
2021/08/28 18:08:16;;;;;;;0.70;0.60;;;26.60;99.90;;;;;;20597172;28;20691;-74
2021/08/28 18:18:20;;;;;;;1.17;1.00;;;26.40;99.90;;;;;;20483693;28;20210;-76
2021/08/28 18:28:25;;;;;;;3.75;0.90;;;26.40;99.90;;;;;;20466080;28;20586;-75
2021/08/28 18:38:29;;;;;;;0.90;0.82;;;26.40;99.90;;;;;;20518764;28;20204;-76
2021/08/28 18:58:54;;;;;;;0.90;0.68;;;26.20;99.90;;;;;;20650071;23;20466;-74
2021/08/28 19:08:58;;;;;;;2.80;1.38;;;26.10;99.90;;;;;;20537473;28;20303;-74
2021/08/28 19:19:03;;;;;;;4.20;0.90;;;26.30;99.90;;;;;;20609252;28;20192;-76
2021/08/28 19:29:07;;;;;;;2.22;0.93;;;26.20;99.90;;;;;;20586713;28;20232;-78
2021/08/28 19:39:12;;;;;;;2.25;0.90;;;26.20;99.90;;;;;;20611573;28;20401;-79
2021/08/28 19:49:16;;;;;;;1.63;1.00;;;26.00;99.90;;;;;;20623476;28;20219;-78
2021/08/28 19:59:21;;;;;;;0.45;0.40;;;26.00;99.90;;;;;;20700287;28;20371;-76
2021/08/28 20:09:24;;;;;;;2.25;0.70;;;25.90;99.90;;;;;;20702723;28;20222;-70
2021/08/28 20:19:30;;;;;;;1.80;1.02;;;25.60;99.90;;;;;;20703711;28;20190;-76
2021/08/28 20:29:33;;;;;;;0.60;0.60;;;25.60;99.90;;;;;;20695880;28;20635;-77
2021/08/28 20:39:38;;;;;;;1.80;1.35;;;25.50;99.90;;;;;;20711628;28;20207;-76
2021/08/28 20:49:42;;;;;;;2.60;1.25;;;25.20;99.90;;;;;;20709575;28;20730;-78
2021/08/28 20:59:48;;;;;;;1.00;0.95;;;25.00;99.90;;;;;;20690032;28;20260;-75
2021/08/28 21:09:52;;;;;;;0.82;0.50;;;25.00;99.90;;;;;;22274980;22;20306;-76
2021/08/28 21:19:57;;;;;;;8.57;1.52;;;24.70;99.90;;;;;;20650421;28;20571;-73
2021/08/28 21:30:00;;;;;;;1.80;0.65;;;24.20;99.90;;;;;;20600108;28;20570;-75
2021/08/28 21:40:08;;;;;;;1.38;0.82;;;24.10;99.90;;;;;;20582559;28;20211;-76
2021/08/28 21:50:12;;;;;;;2.85;1.10;;;23.90;99.90;;;;;;20623418;28;20559;-75
2021/08/28 22:00:24;;;;;;;0.93;0.47;;;23.80;99.90;;;;;;20663888;28;20643;-77
2021/08/28 22:10:28;;;;;;;8.98;0.85;;;23.60;99.90;;;;;;20692755;28;20329;-77
2021/08/28 22:20:33;;;;;;;3.63;1.33;;;23.50;99.90;;;;;;20692582;28;20213;-76
2021/08/28 22:30:36;;;;;;;0.68;0.52;;;23.30;99.90;;;;;;20677701;28;20226;-75
2021/08/28 22:40:42;;;;;;;0.77;0.60;;;23.20;99.90;;;;;;20693482;28;20191;-77
2021/08/28 22:50:45;;;;;;;1.23;0.70;;;23.20;99.90;;;;;;20692532;28;20219;-77
2021/08/28 23:00:50;;;;;;;1.50;0.60;;;23.00;99.90;;;;;;20701123;28;20210;-80
2021/08/28 23:10:54;;;;;;;0.70;0.70;;;22.80;99.90;;;;;;20707999;28;20703;-75
2021/08/28 23:20:59;;;;;;;1.23;0.67;;;22.80;99.90;;;;;;20710803;28;20277;-74
2021/08/28 23:31:03;;;;;;;6.20;1.70;;;22.80;99.90;;;;;;20710005;28;20250;-77
2021/08/28 23:41:08;;;;;;;2.70;1.38;;;23.10;99.90;;;;;;20704913;28;20520;-76
2021/08/28 23:51:12;;;;;;;1.77;1.13;;;23.50;99.90;;;;;;20707228;28;20578;-77
